Terminal Aerodrome Forecast
Issued by NWS

Home | Current Version | Previous Version | Text Only | Print | Product List | Glossary On
Versions: 1 2 3 4 5 6 7 8 9 10 11 12 13 14 15 16 17 18 19 20 21 22 23 24 25 26
000
FTUS44 KOUN 271131
TAFGAG
TAF
KGAG 271131Z 2712/2812 VRB03KT P6SM VCSH BKN120
     FM271500 18010KT P6SM BKN080
     FM271900 18014G23KT P6SM BKN080 BKN120
     FM280000 15011KT P6SM BKN025 PROB30 2800/2806 2SM TSRA BKN025CB
      OVC050=

USA.gov is the U.S. government's official web portal to all federal, state and local government web resources and services.